Terminal Aerodrome Forecast
Issued by NWS Upton, NY

Home | Current Version | Previous Version | Text Only | Print | Product List | Glossary On
Versions: 1 2 3 4 5 6 7 8 9 10 11 12 13 14 15 16 17 18 19 20 21 22 23 24 25 26 27 28 29 30 31 32
937
FTUS41 KOKX 130212 AAA
TAFLGA
TAF AMD
KLGA 130212Z 1302/1406 30020G30KT P6SM VCSH FEW030 SCT050 BKN080
     FM130500 28022G33KT P6SM SCT050 BKN100
     FM131300 28024G35KT P6SM BKN050
     FM132100 27021G30KT P6SM SCT050 BKN200
     FM140100 26016G24KT P6SM BKN050 BKN100=

USA.gov is the U.S. government's official web portal to all federal, state and local government web resources and services.